createdAt,value
2018-07-06T00:00:33.817Z,20.30
2018-07-06T00:03:14.155Z,20.63
2018-07-06T00:05:54.626Z,21.16
2018-07-06T00:08:35.106Z,21.10
2018-07-06T00:11:15.527Z,21.25
2018-07-06T00:13:56.018Z,21.34
2018-07-06T00:16:36.417Z,20.45
2018-07-06T00:19:16.818Z,20.91
2018-07-06T00:21:57.147Z,21.15
2018-07-06T00:24:37.500Z,20.93
2018-07-06T00:27:17.951Z,20.69
2018-07-06T00:29:58.411Z,21.09
2018-07-06T00:32:38.806Z,20.77
2018-07-06T00:35:19.207Z,20.57
2018-07-06T00:37:59.660Z,20.95
2018-07-06T00:40:40.123Z,20.55
2018-07-06T00:43:20.550Z,21.01
2018-07-06T00:46:00.914Z,21.17
2018-07-06T00:48:42.302Z,21.20
2018-07-06T00:51:22.775Z,21.27
2018-07-06T00:54:03.094Z,21.13
2018-07-06T00:56:43.402Z,21.27
2018-07-06T00:59:23.952Z,21.13
2018-07-06T01:02:04.407Z,21.24
2018-07-06T01:04:44.827Z,21.23
2018-07-06T01:07:25.207Z,21.08
2018-07-06T01:10:05.569Z,21.09
2018-07-06T01:12:51.105Z,21.15
2018-07-06T01:15:35.423Z,21.13
2018-07-06T01:18:16.803Z,21.03
2018-07-06T01:20:57.304Z,20.86
2018-07-06T01:23:37.684Z,19.85
2018-07-06T01:26:18.572Z,20.55
2018-07-06T01:28:59.663Z,20.79
2018-07-06T01:31:40.012Z,20.99
2018-07-06T01:34:20.573Z,21.02
2018-07-06T01:37:01.073Z,21.00
2018-07-06T01:39:41.489Z,20.84
2018-07-06T01:42:21.978Z,20.45
2018-07-06T01:45:02.239Z,20.39
2018-07-06T01:47:42.653Z,20.36
2018-07-06T01:50:22.960Z,20.48
2018-07-06T01:53:03.306Z,20.37
2018-07-06T01:55:43.757Z,20.59
2018-07-06T01:58:24.156Z,19.82
2018-07-06T02:01:08.601Z,19.67
2018-07-06T02:03:49.224Z,19.77
2018-07-06T02:06:29.585Z,20.06
2018-07-06T02:09:10.010Z,20.23
2018-07-06T02:11:50.523Z,20.16
2018-07-06T02:14:31.111Z,20.31
2018-07-06T02:17:11.329Z,20.37
2018-07-06T02:19:51.728Z,20.50
2018-07-06T02:22:32.090Z,20.26
2018-07-06T02:25:12.351Z,20.35
2018-07-06T02:27:52.615Z,20.50
2018-07-06T02:30:33.167Z,20.47
2018-07-06T02:33:13.441Z,20.10
2018-07-06T02:35:53.687Z,19.72
2018-07-06T02:38:34.078Z,19.78
2018-07-06T02:41:14.590Z,19.89
2018-07-06T02:43:54.930Z,19.64
2018-07-06T02:46:35.439Z,19.99
2018-07-06T02:49:15.907Z,20.07
2018-07-06T02:51:56.406Z,20.14
2018-07-06T02:54:36.686Z,20.20
2018-07-06T02:57:17.174Z,20.25
2018-07-06T02:59:57.483Z,20.20
2018-07-06T03:02:37.860Z,19.97
2018-07-06T03:05:18.498Z,20.03
2018-07-06T03:07:58.992Z,20.08
2018-07-06T03:10:39.526Z,20.17
2018-07-06T03:13:19.922Z,19.73
2018-07-06T03:16:00.173Z,20.05
2018-07-06T03:18:40.674Z,20.18
2018-07-06T03:21:20.954Z,20.20
2018-07-06T03:24:01.575Z,19.77
2018-07-06T03:26:41.991Z,19.05
2018-07-06T03:29:22.463Z,19.75
2018-07-06T03:32:02.870Z,19.97
2018-07-06T03:34:43.154Z,20.14
2018-07-06T03:37:23.547Z,20.10
2018-07-06T03:40:04.154Z,19.76
2018-07-06T03:42:44.661Z,18.92
2018-07-06T03:45:25.095Z,19.68
2018-07-06T03:48:05.511Z,20.07
2018-07-06T03:50:45.932Z,20.04
2018-07-06T03:53:26.454Z,20.23
2018-07-06T03:56:06.874Z,19.98
2018-07-06T03:58:47.184Z,20.02
2018-07-06T04:01:27.622Z,20.20
2018-07-06T04:04:08.038Z,19.99
2018-07-06T04:06:48.623Z,19.36
2018-07-06T04:09:28.974Z,19.87
2018-07-06T04:12:09.417Z,20.19
2018-07-06T04:14:49.845Z,20.00
2018-07-06T04:17:30.200Z,20.41
2018-07-06T04:20:10.867Z,20.54
2018-07-06T04:22:51.324Z,20.26
2018-07-06T04:25:31.643Z,20.53
2018-07-06T04:28:12.017Z,20.59
2018-07-06T04:30:52.705Z,20.50
2018-07-06T04:33:33.082Z,20.48
2018-07-06T04:36:13.473Z,20.07
2018-07-06T04:38:53.869Z,19.57
2018-07-06T04:41:34.258Z,19.20
2018-07-06T04:44:14.617Z,18.90
2018-07-06T04:46:55.076Z,18.89
2018-07-06T04:49:35.363Z,19.60
2018-07-06T04:52:15.823Z,19.76
2018-07-06T04:54:56.230Z,20.02
2018-07-06T04:57:36.714Z,20.34
2018-07-06T05:00:17.292Z,19.91
2018-07-06T05:02:57.782Z,19.72
2018-07-06T05:05:38.079Z,20.13
2018-07-06T05:08:18.891Z,20.96
2018-07-06T05:10:59.371Z,21.26
2018-07-06T05:13:39.730Z,21.49
2018-07-06T05:16:20.197Z,21.89
2018-07-06T05:19:00.668Z,21.81
2018-07-06T05:21:41.102Z,21.44
2018-07-06T05:24:21.327Z,21.14
2018-07-06T05:27:01.692Z,21.86
2018-07-06T05:29:42.220Z,21.54
2018-07-06T05:32:22.642Z,21.32
2018-07-06T05:35:03.135Z,21.21
2018-07-06T05:37:43.567Z,21.88
2018-07-06T05:40:24.073Z,22.12
2018-07-06T05:43:04.528Z,22.05
2018-07-06T05:45:45.091Z,22.85
2018-07-06T05:48:25.626Z,23.11
2018-07-06T05:51:06.086Z,22.40
2018-07-06T05:53:46.454Z,22.33
2018-07-06T05:56:26.872Z,22.69
2018-07-06T05:59:07.367Z,23.09
2018-07-06T06:01:47.746Z,23.71
2018-07-06T06:04:28.186Z,24.16
2018-07-06T06:07:08.710Z,24.25
2018-07-06T06:09:39.301Z,24.50
2018-07-06T06:12:09.372Z,23.30
2018-07-06T06:14:39.277Z,22.72
2018-07-06T06:17:09.643Z,21.89
2018-07-06T06:19:40.790Z,23.45
2018-07-06T06:22:10.749Z,24.18
2018-07-06T06:24:40.937Z,24.69
2018-07-06T06:27:10.909Z,24.47
2018-07-06T06:29:42.372Z,24.46
2018-07-06T06:32:12.347Z,24.53
2018-07-06T06:34:42.205Z,24.58
2018-07-06T06:37:12.341Z,24.96
2018-07-06T06:39:42.729Z,25.17
2018-07-06T06:42:12.682Z,25.41
2018-07-06T06:44:42.882Z,24.86
2018-07-06T06:47:12.945Z,24.77
2018-07-06T06:49:44.032Z,25.64
2018-07-06T06:52:14.115Z,26.18
2018-07-06T06:54:44.147Z,26.48
2018-07-06T06:57:14.047Z,25.79
2018-07-06T06:59:44.695Z,25.60
2018-07-06T07:03:38.724Z,25.93
2018-07-06T07:06:08.682Z,26.20
2018-07-06T07:08:38.666Z,25.93
2018-07-06T07:11:08.608Z,26.58
2018-07-06T07:13:38.674Z,27.11
2018-07-06T07:16:08.604Z,27.09
2018-07-06T07:18:38.526Z,27.26
2018-07-06T07:21:08.419Z,27.44
2018-07-06T07:23:38.330Z,27.73
2018-07-06T07:26:08.262Z,27.30
2018-07-06T07:28:38.584Z,27.30
2018-07-06T07:31:08.448Z,27.96
2018-07-06T07:33:38.635Z,27.88
2018-07-06T07:36:08.457Z,28.04
2018-07-06T07:38:39.202Z,28.69
2018-07-06T07:41:09.012Z,28.48
2018-07-06T07:43:38.914Z,28.41
2018-07-06T07:46:08.737Z,29.11
2018-07-06T07:48:39.210Z,28.35
2018-07-06T07:51:54.532Z,29.13
2018-07-06T07:54:38.666Z,29.68
2018-07-06T07:57:09.407Z,30.54
2018-07-06T07:59:39.645Z,30.07
2018-07-06T08:02:09.524Z,30.07
2018-07-06T08:04:39.376Z,29.94
2018-07-06T08:07:09.829Z,29.90
2018-07-06T08:09:39.907Z,29.94
2018-07-06T08:12:09.717Z,30.43
2018-07-06T08:14:39.761Z,30.22
2018-07-06T08:17:09.614Z,30.77
2018-07-06T08:19:39.406Z,30.67
2018-07-06T08:22:09.236Z,31.43
2018-07-06T08:24:39.194Z,31.14
2018-07-06T08:27:09.054Z,30.57
2018-07-06T08:29:38.667Z,29.95
2018-07-06T08:32:08.497Z,30.73
2018-07-06T08:34:48.937Z,31.03
2018-07-06T08:37:31.728Z,31.98
2018-07-06T08:40:01.704Z,31.74
2018-07-06T08:42:32.427Z,32.19
2018-07-06T08:45:02.866Z,32.28
2018-07-06T08:47:33.738Z,32.22
2018-07-06T08:50:04.312Z,32.53
2018-07-06T08:52:34.012Z,32.45
2018-07-06T08:55:03.751Z,32.59
2018-07-06T08:57:34.833Z,32.75
2018-07-06T09:00:04.712Z,32.43
2018-07-06T09:02:34.577Z,31.65
2018-07-06T09:05:04.679Z,31.80
2018-07-06T09:07:34.914Z,32.17
2018-07-06T09:10:05.066Z,32.07
2018-07-06T09:12:34.878Z,32.39
2018-07-06T09:15:05.240Z,32.93
2018-07-06T09:17:35.765Z,33.51
2018-07-06T09:20:05.534Z,32.84
2018-07-06T09:22:35.053Z,33.49
2018-07-06T09:25:06.216Z,32.76
2018-07-06T09:27:36.967Z,32.76
2018-07-06T09:30:06.743Z,33.61
2018-07-06T09:32:36.487Z,34.11
2018-07-06T09:35:06.370Z,33.94
2018-07-06T09:37:37.475Z,33.86
2018-07-06T09:40:07.209Z,34.03
2018-07-06T09:42:36.844Z,33.40
2018-07-06T09:45:06.619Z,33.76
2018-07-06T09:47:37.059Z,34.42
2018-07-06T09:50:06.953Z,33.27
2018-07-06T09:52:36.714Z,32.41
2018-07-06T09:55:06.446Z,33.09
2018-07-06T09:57:36.215Z,33.33
2018-07-06T10:00:06.854Z,33.77
2018-07-06T10:02:36.733Z,34.18
2018-07-06T10:05:06.736Z,34.83
2018-07-06T10:07:36.830Z,33.79
2018-07-06T10:10:06.743Z,35.08
2018-07-06T10:12:36.495Z,34.53
2018-07-06T10:15:06.473Z,34.53
2018-07-06T10:17:36.295Z,34.51
2018-07-06T10:20:06.058Z,33.55
2018-07-06T10:22:35.889Z,32.73
2018-07-06T10:25:05.758Z,32.47
2018-07-06T10:27:45.805Z,32.06
2018-07-06T10:30:31.087Z,31.88
2018-07-06T10:33:00.877Z,32.32
2018-07-06T10:35:30.611Z,33.01
2018-07-06T10:38:00.986Z,33.07
2018-07-06T10:40:30.690Z,33.39
2018-07-06T10:43:00.504Z,33.40
2018-07-06T10:45:30.419Z,33.92
2018-07-06T10:48:00.198Z,35.02
2018-07-06T10:50:30.074Z,35.47
2018-07-06T10:52:59.910Z,36.22
2018-07-06T10:55:29.687Z,35.14
2018-07-06T10:57:59.420Z,35.20
2018-07-06T11:00:29.346Z,35.84
2018-07-06T11:02:59.167Z,35.08
2018-07-06T11:05:28.809Z,34.78
2018-07-06T11:07:58.649Z,34.21
2018-07-06T11:10:28.211Z,34.47
2018-07-06T11:12:58.032Z,34.69
2018-07-06T11:15:27.813Z,33.82
2018-07-06T11:17:57.528Z,32.91
2018-07-06T11:20:27.292Z,32.82
2018-07-06T11:22:56.976Z,32.84
2018-07-06T11:25:26.856Z,33.12
2018-07-06T11:27:56.682Z,33.44
2018-07-06T11:30:26.514Z,32.75
2018-07-06T11:32:56.358Z,33.12
2018-07-06T11:35:26.247Z,33.71
2018-07-06T11:37:56.425Z,33.38
2018-07-06T11:40:26.030Z,33.13
2018-07-06T11:42:55.883Z,32.16
2018-07-06T11:45:25.622Z,31.93
2018-07-06T11:47:55.437Z,32.82
2018-07-06T11:50:25.439Z,32.78
2018-07-06T11:52:55.225Z,32.76
2018-07-06T11:55:25.063Z,32.60
2018-07-06T11:57:55.023Z,32.88
2018-07-06T12:00:24.933Z,33.34
2018-07-06T12:02:54.945Z,32.86
2018-07-06T12:05:25.106Z,33.07
2018-07-06T12:07:54.971Z,33.06
2018-07-06T12:10:24.634Z,32.48
2018-07-06T12:12:54.510Z,32.07
2018-07-06T12:15:24.363Z,31.12
2018-07-06T12:17:54.327Z,30.77
2018-07-06T12:20:24.211Z,30.21
2018-07-06T12:22:54.393Z,29.85
2018-07-06T12:25:24.227Z,28.86
2018-07-06T12:27:54.137Z,28.57
2018-07-06T12:30:23.983Z,27.88
2018-07-06T12:32:53.636Z,27.52
2018-07-06T12:35:23.462Z,27.48
2018-07-06T12:37:53.360Z,27.79
2018-07-06T12:40:23.170Z,28.16
2018-07-06T12:42:52.983Z,27.78
2018-07-06T12:45:23.001Z,28.27
2018-07-06T12:47:52.763Z,29.63
2018-07-06T12:50:22.543Z,30.23
2018-07-06T12:52:52.330Z,30.43
2018-07-06T12:55:22.172Z,31.33
2018-07-06T12:57:51.964Z,31.29
2018-07-06T13:00:21.806Z,30.99
2018-07-06T13:02:51.640Z,31.80
2018-07-06T13:05:21.685Z,31.97
2018-07-06T13:07:51.433Z,32.28
2018-07-06T13:10:21.324Z,32.24
2018-07-06T13:12:51.107Z,31.83
2018-07-06T13:15:20.927Z,31.13
2018-07-06T13:17:50.823Z,31.31
2018-07-06T13:20:20.685Z,31.43
2018-07-06T13:22:55.302Z,30.91
2018-07-06T13:25:25.195Z,31.49
2018-07-06T13:27:55.510Z,30.50
2018-07-06T13:30:25.385Z,30.15
2018-07-06T13:32:55.205Z,30.16
2018-07-06T13:35:24.987Z,30.03
2018-07-06T13:37:55.214Z,29.47
2018-07-06T13:40:24.977Z,29.36
2018-07-06T13:42:54.890Z,30.71
2018-07-06T13:45:24.637Z,30.75
2018-07-06T13:47:54.485Z,31.54
2018-07-06T13:50:24.276Z,31.47
2018-07-06T13:52:54.055Z,31.18
2018-07-06T13:55:23.857Z,31.27
2018-07-06T13:57:53.679Z,31.41
2018-07-06T14:00:23.382Z,30.81
2018-07-06T14:02:53.805Z,30.66
2018-07-06T14:05:24.122Z,31.33
2018-07-06T14:07:54.629Z,31.43
2018-07-06T14:10:24.441Z,31.53
2018-07-06T14:12:54.961Z,31.46
2018-07-06T14:15:24.780Z,31.99
2018-07-06T14:17:54.549Z,31.63
2018-07-06T14:20:24.376Z,31.97
2018-07-06T14:22:54.482Z,32.06
2018-07-06T14:25:24.157Z,32.45
2018-07-06T14:27:53.873Z,31.79
2018-07-06T14:30:23.813Z,31.55
2018-07-06T14:32:53.460Z,31.65
2018-07-06T14:35:23.062Z,31.68
2018-07-06T14:37:52.873Z,31.54
2018-07-06T14:40:22.735Z,31.76
2018-07-06T14:42:52.543Z,32.21
2018-07-06T14:45:22.332Z,32.28
2018-07-06T14:47:52.103Z,32.24
2018-07-06T14:50:21.859Z,32.47
2018-07-06T14:52:51.791Z,32.88
2018-07-06T14:55:21.692Z,31.88
2018-07-06T14:57:51.379Z,32.08
2018-07-06T15:00:21.239Z,31.67
2018-07-06T15:02:51.029Z,31.75
2018-07-06T15:05:21.051Z,31.93
2018-07-06T15:07:51.004Z,31.61
2018-07-06T15:10:20.794Z,31.22
2018-07-06T15:14:19.493Z,31.62
2018-07-06T15:16:49.078Z,30.73
2018-07-06T15:19:18.956Z,30.35
2018-07-06T15:21:48.700Z,30.25
2018-07-06T15:24:18.520Z,29.55
2018-07-06T15:26:48.885Z,29.42
2018-07-06T15:29:18.727Z,29.34
2018-07-06T15:31:48.425Z,28.96
2018-07-06T15:34:18.206Z,28.86
2018-07-06T15:36:48.103Z,28.49
2018-07-06T15:39:17.898Z,28.57
2018-07-06T15:41:47.720Z,28.34
2018-07-06T15:44:18.166Z,27.54
2018-07-06T15:46:48.285Z,28.07
2018-07-06T15:49:18.309Z,27.89
2018-07-06T15:51:48.144Z,27.71
2018-07-06T15:54:17.992Z,26.92
2018-07-06T15:56:47.820Z,26.91
2018-07-06T15:59:17.562Z,26.73
2018-07-06T16:01:47.319Z,26.58
2018-07-06T16:04:17.099Z,26.23
2018-07-06T16:06:46.854Z,26.21
2018-07-06T16:09:17.120Z,26.44
2018-07-06T16:11:46.987Z,26.16
2018-07-06T16:14:16.891Z,26.17
2018-07-06T16:16:46.501Z,26.24
2018-07-06T16:19:16.286Z,25.86
2018-07-06T16:21:46.119Z,25.90
2018-07-06T16:24:15.872Z,26.08
2018-07-06T16:26:45.707Z,26.28
2018-07-06T16:29:15.493Z,26.33
2018-07-06T16:31:45.334Z,26.01
2018-07-06T16:34:15.206Z,24.73
2018-07-06T16:36:45.050Z,24.72
2018-07-06T16:39:14.939Z,23.77
2018-07-06T16:41:44.728Z,24.22
2018-07-06T16:44:14.569Z,24.54
2018-07-06T16:46:44.360Z,24.97
2018-07-06T16:49:14.198Z,24.60
2018-07-06T16:51:43.939Z,24.67
2018-07-06T16:54:13.754Z,24.29
2018-07-06T16:56:43.642Z,23.81
2018-07-06T16:59:13.564Z,23.78
2018-07-06T17:01:43.415Z,23.15
2018-07-06T17:04:13.287Z,23.26
2018-07-06T17:06:43.170Z,22.98
2018-07-06T17:09:13.086Z,23.14
2018-07-06T17:11:42.926Z,23.18
2018-07-06T17:14:12.750Z,23.12
2018-07-06T17:16:42.499Z,22.65
2018-07-06T17:19:12.245Z,22.55
2018-07-06T17:21:42.072Z,22.32
2018-07-06T17:24:12.014Z,22.46
2018-07-06T17:26:41.798Z,22.85
2018-07-06T17:29:11.681Z,22.91
2018-07-06T17:31:41.656Z,22.33
2018-07-06T17:34:11.551Z,22.24
2018-07-06T17:36:41.390Z,22.41
2018-07-06T17:39:11.470Z,22.28
2018-07-06T17:41:41.271Z,22.54
2018-07-06T17:44:11.200Z,22.35
2018-07-06T17:46:41.159Z,22.04
2018-07-06T17:49:11.032Z,22.15
2018-07-06T17:51:40.856Z,22.22
2018-07-06T17:54:10.715Z,22.17
2018-07-06T17:56:40.468Z,22.78
2018-07-06T17:59:10.315Z,22.91
2018-07-06T18:01:40.308Z,23.25
2018-07-06T18:04:10.115Z,23.38
2018-07-06T18:06:39.978Z,23.47
2018-07-06T18:09:09.836Z,23.70
2018-07-06T18:11:39.699Z,23.86
2018-07-06T18:14:09.591Z,23.57
2018-07-06T18:16:39.489Z,23.68
2018-07-06T18:19:09.352Z,23.87
2018-07-06T18:21:39.663Z,23.93
2018-07-06T18:24:09.603Z,23.81
2018-07-06T18:26:39.422Z,23.09
2018-07-06T18:29:09.160Z,22.97
2018-07-06T18:31:39.046Z,20.90
2018-07-06T18:34:08.868Z,23.02
2018-07-06T18:36:38.794Z,23.29
2018-07-06T18:39:08.716Z,23.34
2018-07-06T18:41:38.476Z,22.67
2018-07-06T18:44:08.283Z,22.94
2018-07-06T18:46:38.099Z,23.38
2018-07-06T18:49:07.897Z,23.63
2018-07-06T18:51:37.709Z,22.91
2018-07-06T18:54:07.496Z,22.78
2018-07-06T18:56:38.044Z,22.57
2018-07-06T18:59:08.020Z,22.31
2018-07-06T19:01:37.864Z,22.21
2018-07-06T19:04:08.041Z,22.87
2018-07-06T19:06:38.692Z,23.10
2018-07-06T19:09:08.749Z,22.64
2018-07-06T19:11:38.656Z,23.01
2018-07-06T19:14:08.638Z,23.26
2018-07-06T19:16:38.635Z,23.50
2018-07-06T19:19:08.279Z,23.38
2018-07-06T19:21:37.938Z,23.59
2018-07-06T19:24:07.765Z,23.67
2018-07-06T19:26:37.623Z,23.67
2018-07-06T19:29:07.600Z,23.74
2018-07-06T19:31:37.509Z,23.75
2018-07-06T19:34:07.309Z,23.69
2018-07-06T19:36:37.081Z,23.30
2018-07-06T19:39:07.332Z,22.95
2018-07-06T19:41:37.298Z,22.82
2018-07-06T19:44:07.116Z,21.94
2018-07-06T19:46:36.953Z,21.45
2018-07-06T19:49:06.796Z,21.53
2018-07-06T19:51:36.822Z,22.20
2018-07-06T19:54:06.933Z,22.62
2018-07-06T19:56:36.799Z,22.85
2018-07-06T19:59:08.789Z,22.94
2018-07-06T20:01:38.682Z,22.02
2018-07-06T20:04:08.756Z,21.85
2018-07-06T20:06:39.847Z,22.15
2018-07-06T20:09:09.650Z,22.32
2018-07-06T20:11:40.225Z,21.99
2018-07-06T20:14:10.113Z,21.78
2018-07-06T20:16:41.179Z,21.21
2018-07-06T20:19:11.055Z,21.05
2018-07-06T20:21:41.052Z,21.09
2018-07-06T20:24:41.740Z,20.91
2018-07-06T20:27:11.858Z,21.00
2018-07-06T20:29:41.663Z,20.91
2018-07-06T20:32:11.433Z,20.72
2018-07-06T20:34:41.229Z,20.92
2018-07-06T20:37:11.046Z,21.30
2018-07-06T20:39:40.981Z,21.82
2018-07-06T20:42:10.825Z,20.42
2018-07-06T20:44:42.813Z,21.97
2018-07-06T20:47:12.669Z,21.40
2018-07-06T20:49:42.385Z,21.16
2018-07-06T20:52:12.340Z,21.38
2018-07-06T20:54:43.137Z,21.37
2018-07-06T20:57:13.098Z,21.25
2018-07-06T20:59:43.020Z,21.77
2018-07-06T21:02:12.848Z,21.51
2018-07-06T21:04:43.811Z,21.00
2018-07-06T21:07:13.621Z,20.71
2018-07-06T21:09:43.483Z,20.53
2018-07-06T21:12:13.223Z,20.88
2018-07-06T21:14:44.086Z,21.38
2018-07-06T21:17:14.339Z,21.76
2018-07-06T21:19:44.162Z,21.97
2018-07-06T21:22:13.975Z,21.78
2018-07-06T21:24:44.560Z,21.67
2018-07-06T21:27:14.268Z,21.76
2018-07-06T21:29:44.039Z,21.86
2018-07-06T21:32:13.908Z,21.72
2018-07-06T21:34:43.744Z,21.24
2018-07-06T21:37:13.631Z,21.19
2018-07-06T21:39:43.500Z,20.77
2018-07-06T21:42:13.278Z,20.90
2018-07-06T21:44:43.054Z,21.08
2018-07-06T21:47:12.828Z,21.56
2018-07-06T21:49:42.574Z,21.89
2018-07-06T21:52:12.273Z,21.20
2018-07-06T21:54:42.211Z,21.02
2018-07-06T21:57:11.993Z,21.16
2018-07-06T21:59:41.826Z,21.24
2018-07-06T22:02:15.551Z,21.70
2018-07-06T22:04:47.187Z,21.90
2018-07-06T22:07:17.531Z,22.01
2018-07-06T22:09:47.234Z,22.09
2018-07-06T22:12:17.180Z,22.12
2018-07-06T22:14:47.774Z,22.21
2018-07-06T22:17:17.778Z,22.28
2018-07-06T22:19:47.625Z,22.22
2018-07-06T22:22:17.525Z,21.96
2018-07-06T22:24:47.997Z,21.75
2018-07-06T22:27:17.841Z,21.65
2018-07-06T22:29:47.569Z,21.63
2018-07-06T22:32:17.346Z,20.89
2018-07-06T22:34:47.228Z,20.54
2018-07-06T22:37:16.883Z,20.59
2018-07-06T22:39:46.658Z,21.13
2018-07-06T22:42:16.507Z,20.86
2018-07-06T22:44:46.332Z,21.17
2018-07-06T22:47:16.247Z,21.47
2018-07-06T22:49:46.252Z,21.55
2018-07-06T22:52:16.090Z,21.59
2018-07-06T22:54:46.009Z,21.77
2018-07-06T22:57:15.839Z,22.08
2018-07-06T22:59:45.638Z,21.85
2018-07-06T23:02:15.569Z,21.15
2018-07-06T23:04:45.539Z,20.97
2018-07-06T23:07:15.442Z,21.26
2018-07-06T23:09:45.210Z,21.69
2018-07-06T23:12:15.326Z,22.02
2018-07-06T23:14:45.262Z,22.22
2018-07-06T23:17:15.042Z,22.30
2018-07-06T23:19:45.004Z,22.00
2018-07-06T23:22:19.058Z,21.92
2018-07-06T23:24:48.766Z,22.11
2018-07-06T23:27:18.440Z,22.24
2018-07-06T23:29:48.265Z,22.17
2018-07-06T23:32:18.210Z,21.88
2018-07-06T23:34:48.033Z,21.71
2018-07-06T23:37:17.879Z,21.98
2018-07-06T23:39:47.698Z,22.08
2018-07-06T23:42:17.397Z,22.27
2018-07-06T23:44:47.071Z,22.16
2018-07-06T23:47:16.986Z,22.29
2018-07-06T23:49:46.853Z,22.26
2018-07-06T23:52:16.584Z,21.67
2018-07-06T23:54:46.304Z,21.40
2018-07-06T23:57:16.051Z,21.88
2018-07-06T23:59:45.727Z,21.25
